sensor_id;sensor_type;location;lat;lon;timestamp;P1;durP1;ratioP1;P2;durP2;ratioP2
16828;SDS011;8531;48.078;11.968;2023-03-14T00:01:22;1.75;;;0.40;;
16828;SDS011;8531;48.078;11.968;2023-03-14T00:03:49;1.25;;;0.80;;
16828;SDS011;8531;48.078;11.968;2023-03-14T00:06:15;1.52;;;0.65;;
16828;SDS011;8531;48.078;11.968;2023-03-14T00:08:42;0.70;;;0.55;;
16828;SDS011;8531;48.078;11.968;2023-03-14T00:11:16;1.17;;;0.47;;
16828;SDS011;8531;48.078;11.968;2023-03-14T00:13:43;0.82;;;0.40;;
16828;SDS011;8531;48.078;11.968;2023-03-14T00:16:15;0.55;;;0.30;;
16828;SDS011;8531;48.078;11.968;2023-03-14T00:18:41;0.43;;;0.32;;
16828;SDS011;8531;48.078;11.968;2023-03-14T00:21:07;1.05;;;0.40;;
16828;SDS011;8531;48.078;11.968;2023-03-14T00:23:35;0.65;;;0.38;;
16828;SDS011;8531;48.078;11.968;2023-03-14T00:26:03;0.52;;;0.30;;
16828;SDS011;8531;48.078;11.968;2023-03-14T00:28:31;0.68;;;0.57;;
16828;SDS011;8531;48.078;11.968;2023-03-14T00:30:57;1.52;;;0.65;;
16828;SDS011;8531;48.078;11.968;2023-03-14T00:33:22;1.20;;;0.55;;
16828;SDS011;8531;48.078;11.968;2023-03-14T00:35:55;1.10;;;0.50;;
16828;SDS011;8531;48.078;11.968;2023-03-14T00:38:22;0.85;;;0.60;;
16828;SDS011;8531;48.078;11.968;2023-03-14T00:40:49;1.35;;;0.52;;
16828;SDS011;8531;48.078;11.968;2023-03-14T00:43:15;5.00;;;0.52;;
16828;SDS011;8531;48.078;11.968;2023-03-14T00:45:41;1.50;;;0.80;;
16828;SDS011;8531;48.078;11.968;2023-03-14T00:48:07;0.90;;;0.57;;
16828;SDS011;8531;48.078;11.968;2023-03-14T00:50:32;2.25;;;0.82;;
16828;SDS011;8531;48.078;11.968;2023-03-14T00:52:58;1.92;;;0.90;;
16828;SDS011;8531;48.078;11.968;2023-03-14T00:55:24;0.95;;;0.52;;
16828;SDS011;8531;48.078;11.968;2023-03-14T00:57:50;0.85;;;0.60;;
16828;SDS011;8531;48.078;11.968;2023-03-14T01:00:15;0.93;;;0.57;;
16828;SDS011;8531;48.078;11.968;2023-03-14T01:02:41;1.67;;;0.95;;
16828;SDS011;8531;48.078;11.968;2023-03-14T01:05:07;1.75;;;0.50;;
16828;SDS011;8531;48.078;11.968;2023-03-14T01:07:35;0.75;;;0.50;;
16828;SDS011;8531;48.078;11.968;2023-03-14T01:10:01;1.63;;;0.55;;
16828;SDS011;8531;48.078;11.968;2023-03-14T01:12:27;1.45;;;0.63;;
16828;SDS011;8531;48.078;11.968;2023-03-14T01:14:54;0.80;;;0.70;;
16828;SDS011;8531;48.078;11.968;2023-03-14T01:17:20;0.88;;;0.80;;
16828;SDS011;8531;48.078;11.968;2023-03-14T01:19:45;1.15;;;0.65;;
16828;SDS011;8531;48.078;11.968;2023-03-14T01:22:11;3.30;;;0.77;;
16828;SDS011;8531;48.078;11.968;2023-03-14T01:24:37;1.17;;;0.75;;
16828;SDS011;8531;48.078;11.968;2023-03-14T01:27:03;1.30;;;0.88;;
16828;SDS011;8531;48.078;11.968;2023-03-14T01:29:28;1.13;;;0.65;;
16828;SDS011;8531;48.078;11.968;2023-03-14T01:31:54;0.50;;;0.40;;
16828;SDS011;8531;48.078;11.968;2023-03-14T01:34:20;1.65;;;0.45;;
16828;SDS011;8531;48.078;11.968;2023-03-14T01:36:45;0.73;;;0.20;;
16828;SDS011;8531;48.078;11.968;2023-03-14T01:39:11;2.45;;;0.20;;
16828;SDS011;8531;48.078;11.968;2023-03-14T01:41:38;0.88;;;0.20;;
16828;SDS011;8531;48.078;11.968;2023-03-14T01:44:05;0.10;;;0.10;;
16828;SDS011;8531;48.078;11.968;2023-03-14T01:46:35;2.08;;;0.20;;
16828;SDS011;8531;48.078;11.968;2023-03-14T01:54:46;0.45;;;0.20;;
16828;SDS011;8531;48.078;11.968;2023-03-14T01:57:29;0.20;;;0.10;;
16828;SDS011;8531;48.078;11.968;2023-03-14T02:00:22;0.63;;;0.10;;
16828;SDS011;8531;48.078;11.968;2023-03-14T02:02:50;1.25;;;0.08;;
16828;SDS011;8531;48.078;11.968;2023-03-14T02:05:21;0.63;;;0.28;;
16828;SDS011;8531;48.078;11.968;2023-03-14T02:07:51;0.20;;;0.10;;
16828;SDS011;8531;48.078;11.968;2023-03-14T02:10:20;0.20;;;0.20;;
16828;SDS011;8531;48.078;11.968;2023-03-14T02:12:47;0.57;;;0.10;;
16828;SDS011;8531;48.078;11.968;2023-03-14T02:15:14;0.10;;;0.10;;
16828;SDS011;8531;48.078;11.968;2023-03-14T02:17:40;0.47;;;0.15;;
16828;SDS011;8531;48.078;11.968;2023-03-14T02:23:01;0.17;;;0.10;;
16828;SDS011;8531;48.078;11.968;2023-03-14T02:25:41;0.52;;;0.10;;
16828;SDS011;8531;48.078;11.968;2023-03-14T02:28:09;0.50;;;0.13;;
16828;SDS011;8531;48.078;11.968;2023-03-14T02:30:35;0.88;;;0.20;;
16828;SDS011;8531;48.078;11.968;2023-03-14T02:33:03;0.60;;;0.10;;
16828;SDS011;8531;48.078;11.968;2023-03-14T02:35:44;1.50;;;0.20;;
16828;SDS011;8531;48.078;11.968;2023-03-14T02:41:04;0.40;;;0.15;;
16828;SDS011;8531;48.078;11.968;2023-03-14T02:43:30;0.20;;;0.10;;
16828;SDS011;8531;48.078;11.968;2023-03-14T02:45:56;0.50;;;0.20;;
16828;SDS011;8531;48.078;11.968;2023-03-14T02:48:24;1.02;;;0.10;;
16828;SDS011;8531;48.078;11.968;2023-03-14T02:50:53;0.57;;;0.10;;
16828;SDS011;8531;48.078;11.968;2023-03-14T02:53:23;0.50;;;0.10;;
16828;SDS011;8531;48.078;11.968;2023-03-14T02:55:52;0.52;;;0.20;;
16828;SDS011;8531;48.078;11.968;2023-03-14T02:58:18;0.20;;;0.00;;
16828;SDS011;8531;48.078;11.968;2023-03-14T03:00:44;0.10;;;0.00;;
16828;SDS011;8531;48.078;11.968;2023-03-14T03:03:10;0.28;;;0.10;;
16828;SDS011;8531;48.078;11.968;2023-03-14T03:05:36;0.35;;;0.00;;
16828;SDS011;8531;48.078;11.968;2023-03-14T03:08:02;0.22;;;0.00;;
16828;SDS011;8531;48.078;11.968;2023-03-14T03:10:28;0.95;;;0.10;;
16828;SDS011;8531;48.078;11.968;2023-03-14T03:12:55;0.20;;;0.10;;
16828;SDS011;8531;48.078;11.968;2023-03-14T03:15:21;0.30;;;0.20;;
16828;SDS011;8531;48.078;11.968;2023-03-14T03:17:47;0.30;;;0.20;;
16828;SDS011;8531;48.078;11.968;2023-03-14T03:20:12;0.30;;;0.10;;
16828;SDS011;8531;48.078;11.968;2023-03-14T03:22:38;0.57;;;0.10;;
16828;SDS011;8531;48.078;11.968;2023-03-14T03:25:05;2.45;;;0.95;;
16828;SDS011;8531;48.078;11.968;2023-03-14T03:27:32;0.75;;;0.00;;
16828;SDS011;8531;48.078;11.968;2023-03-14T03:29:59;0.10;;;0.00;;
16828;SDS011;8531;48.078;11.968;2023-03-14T03:32:25;0.30;;;0.00;;
16828;SDS011;8531;48.078;11.968;2023-03-14T03:34:51;0.85;;;0.15;;
16828;SDS011;8531;48.078;11.968;2023-03-14T03:37:17;0.52;;;0.05;;
16828;SDS011;8531;48.078;11.968;2023-03-14T03:39:42;0.00;;;0.00;;
16828;SDS011;8531;48.078;11.968;2023-03-14T03:42:08;0.20;;;0.08;;
16828;SDS011;8531;48.078;11.968;2023-03-14T03:44:34;0.35;;;0.00;;
16828;SDS011;8531;48.078;11.968;2023-03-14T03:47:00;0.20;;;0.05;;
16828;SDS011;8531;48.078;11.968;2023-03-14T03:49:29;0.85;;;0.00;;
16828;SDS011;8531;48.078;11.968;2023-03-14T03:51:56;0.00;;;0.00;;
16828;SDS011;8531;48.078;11.968;2023-03-14T03:54:21;1.30;;;0.10;;
16828;SDS011;8531;48.078;11.968;2023-03-14T03:56:47;0.47;;;0.00;;
16828;SDS011;8531;48.078;11.968;2023-03-14T03:59:13;0.10;;;0.00;;
16828;SDS011;8531;48.078;11.968;2023-03-14T04:01:39;0.20;;;0.10;;
16828;SDS011;8531;48.078;11.968;2023-03-14T04:04:05;0.10;;;0.00;;
16828;SDS011;8531;48.078;11.968;2023-03-14T04:06:30;0.20;;;0.10;;
16828;SDS011;8531;48.078;11.968;2023-03-14T04:08:56;1.38;;;0.35;;
16828;SDS011;8531;48.078;11.968;2023-03-14T04:11:22;0.43;;;0.00;;
16828;SDS011;8531;48.078;11.968;2023-03-14T04:13:47;0.13;;;0.00;;
16828;SDS011;8531;48.078;11.968;2023-03-14T04:16:14;0.40;;;0.10;;
16828;SDS011;8531;48.078;11.968;2023-03-14T04:18:45;0.15;;;0.00;;
16828;SDS011;8531;48.078;11.968;2023-03-14T04:21:11;0.10;;;0.10;;
16828;SDS011;8531;48.078;11.968;2023-03-14T04:23:37;0.20;;;0.00;;
16828;SDS011;8531;48.078;11.968;2023-03-14T04:26:03;0.30;;;0.10;;
16828;SDS011;8531;48.078;11.968;2023-03-14T04:28:28;0.30;;;0.10;;
16828;SDS011;8531;48.078;11.968;2023-03-14T04:30:54;0.75;;;0.30;;
16828;SDS011;8531;48.078;11.968;2023-03-14T04:33:20;1.35;;;0.10;;
16828;SDS011;8531;48.078;11.968;2023-03-14T04:35:46;0.63;;;0.10;;
16828;SDS011;8531;48.078;11.968;2023-03-14T04:38:12;0.00;;;0.00;;
16828;SDS011;8531;48.078;11.968;2023-03-14T04:40:39;1.98;;;0.10;;
16828;SDS011;8531;48.078;11.968;2023-03-14T04:43:06;0.20;;;0.10;;
16828;SDS011;8531;48.078;11.968;2023-03-14T04:45:32;1.02;;;0.10;;
16828;SDS011;8531;48.078;11.968;2023-03-14T04:47:58;0.10;;;0.10;;
16828;SDS011;8531;48.078;11.968;2023-03-14T04:50:24;0.60;;;0.10;;
16828;SDS011;8531;48.078;11.968;2023-03-14T04:52:49;0.40;;;0.10;;
16828;SDS011;8531;48.078;11.968;2023-03-14T04:55:15;0.10;;;0.00;;
16828;SDS011;8531;48.078;11.968;2023-03-14T04:57:41;0.00;;;0.00;;
16828;SDS011;8531;48.078;11.968;2023-03-14T05:00:07;0.10;;;0.00;;
16828;SDS011;8531;48.078;11.968;2023-03-14T05:02:33;0.05;;;0.00;;
16828;SDS011;8531;48.078;11.968;2023-03-14T05:04:59;0.10;;;0.00;;
16828;SDS011;8531;48.078;11.968;2023-03-14T05:07:24;0.47;;;0.00;;
16828;SDS011;8531;48.078;11.968;2023-03-14T05:09:50;0.73;;;0.10;;
16828;SDS011;8531;48.078;11.968;2023-03-14T05:12:17;0.88;;;0.10;;
16828;SDS011;8531;48.078;11.968;2023-03-14T05:14:43;0.75;;;0.20;;
16828;SDS011;8531;48.078;11.968;2023-03-14T05:17:09;0.40;;;0.17;;
16828;SDS011;8531;48.078;11.968;2023-03-14T05:19:35;0.40;;;0.10;;
16828;SDS011;8531;48.078;11.968;2023-03-14T05:22:00;1.13;;;0.30;;
16828;SDS011;8531;48.078;11.968;2023-03-14T05:24:26;1.58;;;0.30;;
16828;SDS011;8531;48.078;11.968;2023-03-14T05:26:52;1.08;;;0.13;;
16828;SDS011;8531;48.078;11.968;2023-03-14T05:29:18;0.30;;;0.20;;
16828;SDS011;8531;48.078;11.968;2023-03-14T05:31:44;1.30;;;0.20;;
16828;SDS011;8531;48.078;11.968;2023-03-14T05:34:09;0.65;;;0.40;;
16828;SDS011;8531;48.078;11.968;2023-03-14T05:36:35;0.30;;;0.13;;
16828;SDS011;8531;48.078;11.968;2023-03-14T05:39:01;0.70;;;0.40;;
16828;SDS011;8531;48.078;11.968;2023-03-14T05:41:26;0.63;;;0.20;;
16828;SDS011;8531;48.078;11.968;2023-03-14T05:43:52;0.30;;;0.10;;
16828;SDS011;8531;48.078;11.968;2023-03-14T05:46:18;0.10;;;0.00;;
16828;SDS011;8531;48.078;11.968;2023-03-14T05:48:43;1.85;;;0.85;;
16828;SDS011;8531;48.078;11.968;2023-03-14T05:51:09;2.00;;;0.22;;
16828;SDS011;8531;48.078;11.968;2023-03-14T05:53:34;0.75;;;0.30;;
16828;SDS011;8531;48.078;11.968;2023-03-14T05:56:00;1.35;;;0.45;;
16828;SDS011;8531;48.078;11.968;2023-03-14T05:58:26;1.73;;;0.20;;
16828;SDS011;8531;48.078;11.968;2023-03-14T06:00:51;0.43;;;0.10;;
16828;SDS011;8531;48.078;11.968;2023-03-14T06:03:17;0.17;;;0.08;;
16828;SDS011;8531;48.078;11.968;2023-03-14T06:05:43;0.10;;;0.00;;
16828;SDS011;8531;48.078;11.968;2023-03-14T06:08:08;0.10;;;0.10;;
16828;SDS011;8531;48.078;11.968;2023-03-14T06:10:35;0.30;;;0.20;;
16828;SDS011;8531;48.078;11.968;2023-03-14T06:13:01;0.47;;;0.30;;
16828;SDS011;8531;48.078;11.968;2023-03-14T06:15:27;0.65;;;0.10;;
16828;SDS011;8531;48.078;11.968;2023-03-14T06:17:53;0.30;;;0.25;;
16828;SDS011;8531;48.078;11.968;2023-03-14T06:20:20;0.40;;;0.10;;
16828;SDS011;8531;48.078;11.968;2023-03-14T06:22:46;0.20;;;0.10;;
16828;SDS011;8531;48.078;11.968;2023-03-14T06:25:11;0.20;;;0.10;;
16828;SDS011;8531;48.078;11.968;2023-03-14T06:27:37;0.35;;;0.22;;
16828;SDS011;8531;48.078;11.968;2023-03-14T06:30:03;0.43;;;0.17;;
16828;SDS011;8531;48.078;11.968;2023-03-14T06:32:29;0.00;;;0.00;;
16828;SDS011;8531;48.078;11.968;2023-03-14T06:34:55;0.63;;;0.20;;
16828;SDS011;8531;48.078;11.968;2023-03-14T06:37:22;0.45;;;0.10;;
16828;SDS011;8531;48.078;11.968;2023-03-14T06:39:47;1.42;;;0.20;;
16828;SDS011;8531;48.078;11.968;2023-03-14T06:42:13;0.28;;;0.10;;
16828;SDS011;8531;48.078;11.968;2023-03-14T06:44:39;0.25;;;0.13;;
16828;SDS011;8531;48.078;11.968;2023-03-14T06:47:04;0.93;;;0.60;;
16828;SDS011;8531;48.078;11.968;2023-03-14T06:49:30;0.30;;;0.20;;
16828;SDS011;8531;48.078;11.968;2023-03-14T06:51:56;0.43;;;0.20;;
16828;SDS011;8531;48.078;11.968;2023-03-14T06:54:21;0.65;;;0.40;;
16828;SDS011;8531;48.078;11.968;2023-03-14T06:56:47;1.65;;;0.93;;
16828;SDS011;8531;48.078;11.968;2023-03-14T06:59:12;1.45;;;0.93;;
16828;SDS011;8531;48.078;11.968;2023-03-14T07:01:38;1.63;;;1.25;;
16828;SDS011;8531;48.078;11.968;2023-03-14T07:04:05;0.50;;;0.40;;
16828;SDS011;8531;48.078;11.968;2023-03-14T07:06:30;0.90;;;0.32;;
16828;SDS011;8531;48.078;11.968;2023-03-14T07:08:57;0.35;;;0.20;;
16828;SDS011;8531;48.078;11.968;2023-03-14T07:11:23;0.80;;;0.60;;
16828;SDS011;8531;48.078;11.968;2023-03-14T07:13:49;0.43;;;0.32;;
16828;SDS011;8531;48.078;11.968;2023-03-14T07:16:15;0.77;;;0.35;;
16828;SDS011;8531;48.078;11.968;2023-03-14T07:18:41;0.40;;;0.30;;
16828;SDS011;8531;48.078;11.968;2023-03-14T07:21:06;0.77;;;0.25;;
16828;SDS011;8531;48.078;11.968;2023-03-14T07:23:34;1.50;;;1.00;;
16828;SDS011;8531;48.078;11.968;2023-03-14T07:26:00;4.95;;;3.20;;
16828;SDS011;8531;48.078;11.968;2023-03-14T07:28:25;5.10;;;3.35;;
16828;SDS011;8531;48.078;11.968;2023-03-14T07:30:52;5.82;;;3.97;;
16828;SDS011;8531;48.078;11.968;2023-03-14T07:33:18;5.00;;;2.90;;
16828;SDS011;8531;48.078;11.968;2023-03-14T07:35:46;4.63;;;1.75;;
16828;SDS011;8531;48.078;11.968;2023-03-14T07:38:13;0.93;;;0.55;;
16828;SDS011;8531;48.078;11.968;2023-03-14T07:40:39;0.93;;;0.60;;
16828;SDS011;8531;48.078;11.968;2023-03-14T07:43:05;1.63;;;0.80;;
16828;SDS011;8531;48.078;11.968;2023-03-14T07:45:30;4.35;;;0.95;;
16828;SDS011;8531;48.078;11.968;2023-03-14T07:47:56;1.20;;;0.82;;
16828;SDS011;8531;48.078;11.968;2023-03-14T07:50:23;0.80;;;0.70;;
16828;SDS011;8531;48.078;11.968;2023-03-14T07:52:51;1.15;;;0.43;;
16828;SDS011;8531;48.078;11.968;2023-03-14T07:55:17;1.38;;;0.57;;
16828;SDS011;8531;48.078;11.968;2023-03-14T07:57:43;2.55;;;0.50;;
16828;SDS011;8531;48.078;11.968;2023-03-14T08:00:09;7.30;;;0.80;;
16828;SDS011;8531;48.078;11.968;2023-03-14T08:02:36;1.85;;;0.80;;
16828;SDS011;8531;48.078;11.968;2023-03-14T08:05:02;3.53;;;1.25;;
16828;SDS011;8531;48.078;11.968;2023-03-14T08:07:28;2.53;;;1.20;;
16828;SDS011;8531;48.078;11.968;2023-03-14T08:09:54;3.45;;;1.40;;
16828;SDS011;8531;48.078;11.968;2023-03-14T08:12:20;2.38;;;0.95;;
16828;SDS011;8531;48.078;11.968;2023-03-14T08:14:45;1.50;;;0.77;;
16828;SDS011;8531;48.078;11.968;2023-03-14T08:17:11;1.55;;;0.88;;
16828;SDS011;8531;48.078;11.968;2023-03-14T08:19:37;1.35;;;0.60;;
16828;SDS011;8531;48.078;11.968;2023-03-14T08:22:03;0.60;;;0.47;;
16828;SDS011;8531;48.078;11.968;2023-03-14T08:24:29;1.38;;;0.65;;
16828;SDS011;8531;48.078;11.968;2023-03-14T08:26:56;1.30;;;0.40;;
16828;SDS011;8531;48.078;11.968;2023-03-14T08:29:21;0.80;;;0.60;;
16828;SDS011;8531;48.078;11.968;2023-03-14T08:31:47;1.55;;;0.60;;
16828;SDS011;8531;48.078;11.968;2023-03-14T08:34:14;1.23;;;0.60;;
16828;SDS011;8531;48.078;11.968;2023-03-14T08:36:40;4.60;;;1.83;;
16828;SDS011;8531;48.078;11.968;2023-03-14T08:39:06;0.50;;;0.35;;
16828;SDS011;8531;48.078;11.968;2023-03-14T08:41:32;1.05;;;0.57;;
16828;SDS011;8531;48.078;11.968;2023-03-14T08:43:58;1.13;;;0.40;;
16828;SDS011;8531;48.078;11.968;2023-03-14T08:46:24;1.30;;;0.50;;
16828;SDS011;8531;48.078;11.968;2023-03-14T08:48:50;0.77;;;0.55;;
16828;SDS011;8531;48.078;11.968;2023-03-14T08:51:18;3.22;;;0.70;;
16828;SDS011;8531;48.078;11.968;2023-03-14T08:53:43;1.38;;;0.60;;
16828;SDS011;8531;48.078;11.968;2023-03-14T08:56:09;2.72;;;0.93;;
16828;SDS011;8531;48.078;11.968;2023-03-14T08:58:35;3.17;;;1.20;;
16828;SDS011;8531;48.078;11.968;2023-03-14T09:01:03;3.60;;;1.25;;
16828;SDS011;8531;48.078;11.968;2023-03-14T09:03:33;2.05;;;1.10;;
16828;SDS011;8531;48.078;11.968;2023-03-14T09:06:05;4.00;;;1.20;;
16828;SDS011;8531;48.078;11.968;2023-03-14T09:08:33;1.90;;;1.27;;
16828;SDS011;8531;48.078;11.968;2023-03-14T09:10:59;2.70;;;1.50;;
16828;SDS011;8531;48.078;11.968;2023-03-14T09:13:24;2.95;;;1.30;;
16828;SDS011;8531;48.078;11.968;2023-03-14T09:15:54;2.83;;;1.10;;
16828;SDS011;8531;48.078;11.968;2023-03-14T09:18:20;9.48;;;4.00;;
16828;SDS011;8531;48.078;11.968;2023-03-14T09:20:47;4.53;;;2.13;;
16828;SDS011;8531;48.078;11.968;2023-03-14T09:23:13;2.83;;;1.50;;
16828;SDS011;8531;48.078;11.968;2023-03-14T09:25:39;3.58;;;2.05;;
16828;SDS011;8531;48.078;11.968;2023-03-14T09:28:05;3.83;;;2.45;;
16828;SDS011;8531;48.078;11.968;2023-03-14T09:30:32;3.33;;;2.00;;
16828;SDS011;8531;48.078;11.968;2023-03-14T09:32:58;5.38;;;3.25;;
16828;SDS011;8531;48.078;11.968;2023-03-14T09:35:24;2.95;;;2.42;;
16828;SDS011;8531;48.078;11.968;2023-03-14T09:37:50;7.75;;;4.57;;
16828;SDS011;8531;48.078;11.968;2023-03-14T09:40:16;6.45;;;4.72;;
16828;SDS011;8531;48.078;11.968;2023-03-14T09:42:44;4.28;;;2.75;;
16828;SDS011;8531;48.078;11.968;2023-03-14T09:45:23;10.00;;;6.13;;
16828;SDS011;8531;48.078;11.968;2023-03-14T09:47:56;4.40;;;3.95;;
16828;SDS011;8531;48.078;11.968;2023-03-14T09:50:23;12.00;;;6.60;;
16828;SDS011;8531;48.078;11.968;2023-03-14T09:52:58;7.20;;;5.03;;
16828;SDS011;8531;48.078;11.968;2023-03-14T09:55:28;8.45;;;4.80;;
16828;SDS011;8531;48.078;11.968;2023-03-14T09:57:58;3.60;;;2.70;;
16828;SDS011;8531;48.078;11.968;2023-03-14T10:00:27;6.32;;;4.63;;
16828;SDS011;8531;48.078;11.968;2023-03-14T10:02:56;7.18;;;4.25;;
16828;SDS011;8531;48.078;11.968;2023-03-14T10:05:39;7.72;;;3.45;;
16828;SDS011;8531;48.078;11.968;2023-03-14T10:08:06;18.50;;;8.90;;
16828;SDS011;8531;48.078;11.968;2023-03-14T10:10:35;14.38;;;6.93;;
16828;SDS011;8531;48.078;11.968;2023-03-14T10:15:41;15.25;;;8.57;;
16828;SDS011;8531;48.078;11.968;2023-03-14T10:18:12;24.50;;;13.38;;
16828;SDS011;8531;48.078;11.968;2023-03-14T10:20:40;6.90;;;4.70;;
16828;SDS011;8531;48.078;11.968;2023-03-14T10:25:42;2.05;;;1.30;;
16828;SDS011;8531;48.078;11.968;2023-03-14T10:28:29;1.65;;;1.10;;
16828;SDS011;8531;48.078;11.968;2023-03-14T10:31:02;1.83;;;1.20;;
16828;SDS011;8531;48.078;11.968;2023-03-14T10:33:32;2.63;;;1.60;;
16828;SDS011;8531;48.078;11.968;2023-03-14T10:36:04;1.00;;;0.85;;
16828;SDS011;8531;48.078;11.968;2023-03-14T10:38:34;1.73;;;0.90;;
16828;SDS011;8531;48.078;11.968;2023-03-14T10:41:01;2.80;;;0.95;;
16828;SDS011;8531;48.078;11.968;2023-03-14T10:43:40;4.95;;;1.35;;
16828;SDS011;8531;48.078;11.968;2023-03-14T10:48:39;4.95;;;1.50;;
16828;SDS011;8531;48.078;11.968;2023-03-14T10:51:25;9.48;;;1.77;;
16828;SDS011;8531;48.078;11.968;2023-03-14T10:53:57;3.63;;;1.63;;
16828;SDS011;8531;48.078;11.968;2023-03-14T10:56:32;5.88;;;4.03;;
16828;SDS011;8531;48.078;11.968;2023-03-14T10:59:00;3.63;;;2.17;;
16828;SDS011;8531;48.078;11.968;2023-03-14T11:02:10;2.78;;;2.10;;
16828;SDS011;8531;48.078;11.968;2023-03-14T11:09:45;10.65;;;1.60;;
16828;SDS011;8531;48.078;11.968;2023-03-14T11:14:58;3.65;;;1.25;;
16828;SDS011;8531;48.078;11.968;2023-03-14T11:22:48;2.00;;;0.40;;
16828;SDS011;8531;48.078;11.968;2023-03-14T11:28:37;0.90;;;0.40;;
16828;SDS011;8531;48.078;11.968;2023-03-14T11:31:25;0.68;;;0.20;;
16828;SDS011;8531;48.078;11.968;2023-03-14T11:36:53;11.40;;;7.60;;
16828;SDS011;8531;48.078;11.968;2023-03-14T11:39:19;2.22;;;2.13;;
16828;SDS011;8531;48.078;11.968;2023-03-14T11:41:46;1.75;;;1.55;;
16828;SDS011;8531;48.078;11.968;2023-03-14T11:44:22;1.98;;;0.45;;
16828;SDS011;8531;48.078;11.968;2023-03-14T11:52:22;1.52;;;0.30;;
16828;SDS011;8531;48.078;11.968;2023-03-14T11:54:53;2.75;;;0.70;;
16828;SDS011;8531;48.078;11.968;2023-03-14T11:57:23;6.80;;;0.60;;
16828;SDS011;8531;48.078;11.968;2023-03-14T12:02:33;1.00;;;0.57;;
16828;SDS011;8531;48.078;11.968;2023-03-14T12:08:20;9.63;;;0.60;;
16828;SDS011;8531;48.078;11.968;2023-03-14T12:11:02;1.20;;;0.22;;
16828;SDS011;8531;48.078;11.968;2023-03-14T12:13:45;3.42;;;0.50;;
16828;SDS011;8531;48.078;11.968;2023-03-14T12:16:25;0.73;;;0.10;;
16828;SDS011;8531;48.078;11.968;2023-03-14T12:19:13;0.70;;;0.30;;
16828;SDS011;8531;48.078;11.968;2023-03-14T12:21:49;2.40;;;0.82;;
16828;SDS011;8531;48.078;11.968;2023-03-14T12:24:19;5.75;;;1.20;;
16828;SDS011;8531;48.078;11.968;2023-03-14T12:26:56;0.45;;;0.32;;
16828;SDS011;8531;48.078;11.968;2023-03-14T12:29:23;2.47;;;0.38;;
16828;SDS011;8531;48.078;11.968;2023-03-14T12:34:49;1.77;;;1.15;;
16828;SDS011;8531;48.078;11.968;2023-03-14T12:42:54;5.32;;;1.50;;
16828;SDS011;8531;48.078;11.968;2023-03-14T12:45:29;0.10;;;0.10;;
16828;SDS011;8531;48.078;11.968;2023-03-14T12:50:55;2.63;;;1.55;;
16828;SDS011;8531;48.078;11.968;2023-03-14T12:53:40;0.30;;;0.20;;
16828;SDS011;8531;48.078;11.968;2023-03-14T13:02:01;1.95;;;0.60;;
16828;SDS011;8531;48.078;11.968;2023-03-14T13:04:44;1.05;;;0.20;;
16828;SDS011;8531;48.078;11.968;2023-03-14T13:07:12;0.25;;;0.20;;
16828;SDS011;8531;48.078;11.968;2023-03-14T13:13:02;2.67;;;0.20;;
16828;SDS011;8531;48.078;11.968;2023-03-14T13:15:48;0.68;;;0.30;;
16828;SDS011;8531;48.078;11.968;2023-03-14T13:18:34;3.03;;;0.30;;
16828;SDS011;8531;48.078;11.968;2023-03-14T13:21:15;0.63;;;0.10;;
16828;SDS011;8531;48.078;11.968;2023-03-14T13:23:54;0.30;;;0.10;;
16828;SDS011;8531;48.078;11.968;2023-03-14T13:26:22;2.47;;;0.30;;
16828;SDS011;8531;48.078;11.968;2023-03-14T13:28:50;1.77;;;0.10;;
16828;SDS011;8531;48.078;11.968;2023-03-14T13:31:21;1.17;;;0.30;;
16828;SDS011;8531;48.078;11.968;2023-03-14T13:34:01;0.57;;;0.10;;
16828;SDS011;8531;48.078;11.968;2023-03-14T13:36:29;0.70;;;0.20;;
16828;SDS011;8531;48.078;11.968;2023-03-14T13:38:59;1.55;;;0.10;;
16828;SDS011;8531;48.078;11.968;2023-03-14T13:41:27;0.05;;;0.00;;
16828;SDS011;8531;48.078;11.968;2023-03-14T13:43:57;0.30;;;0.10;;
16828;SDS011;8531;48.078;11.968;2023-03-14T13:46:37;6.45;;;0.75;;
16828;SDS011;8531;48.078;11.968;2023-03-14T13:49:09;0.28;;;0.15;;
16828;SDS011;8531;48.078;11.968;2023-03-14T13:51:40;0.10;;;0.00;;
16828;SDS011;8531;48.078;11.968;2023-03-14T13:54:15;2.97;;;0.13;;
16828;SDS011;8531;48.078;11.968;2023-03-14T13:56:42;5.57;;;0.30;;
16828;SDS011;8531;48.078;11.968;2023-03-14T13:59:27;0.10;;;0.10;;
16828;SDS011;8531;48.078;11.968;2023-03-14T14:01:58;0.35;;;0.17;;
16828;SDS011;8531;48.078;11.968;2023-03-14T14:04:27;0.68;;;0.50;;
16828;SDS011;8531;48.078;11.968;2023-03-14T14:06:58;1.48;;;0.10;;
16828;SDS011;8531;48.078;11.968;2023-03-14T14:09:27;0.65;;;0.30;;
16828;SDS011;8531;48.078;11.968;2023-03-14T14:12:05;0.57;;;0.00;;
16828;SDS011;8531;48.078;11.968;2023-03-14T14:14:47;0.63;;;0.20;;
16828;SDS011;8531;48.078;11.968;2023-03-14T14:17:31;0.15;;;0.05;;
16828;SDS011;8531;48.078;11.968;2023-03-14T14:20:07;0.15;;;0.03;;
16828;SDS011;8531;48.078;11.968;2023-03-14T14:22:39;0.10;;;0.10;;
16828;SDS011;8531;48.078;11.968;2023-03-14T14:25:05;0.00;;;0.00;;
16828;SDS011;8531;48.078;11.968;2023-03-14T14:27:37;0.17;;;0.10;;
16828;SDS011;8531;48.078;11.968;2023-03-14T14:32:51;0.20;;;0.10;;
16828;SDS011;8531;48.078;11.968;2023-03-14T14:37:57;0.65;;;0.10;;
16828;SDS011;8531;48.078;11.968;2023-03-14T14:40:24;0.30;;;0.20;;
16828;SDS011;8531;48.078;11.968;2023-03-14T14:42:51;0.10;;;0.10;;
16828;SDS011;8531;48.078;11.968;2023-03-14T14:45:20;0.57;;;0.20;;
16828;SDS011;8531;48.078;11.968;2023-03-14T14:47:53;0.80;;;0.40;;
16828;SDS011;8531;48.078;11.968;2023-03-14T14:50:29;2.92;;;0.32;;
16828;SDS011;8531;48.078;11.968;2023-03-14T14:52:57;1.17;;;0.10;;
16828;SDS011;8531;48.078;11.968;2023-03-14T14:55:29;0.93;;;0.20;;
16828;SDS011;8531;48.078;11.968;2023-03-14T14:57:58;3.50;;;0.75;;
16828;SDS011;8531;48.078;11.968;2023-03-14T15:00:58;2.35;;;0.73;;
16828;SDS011;8531;48.078;11.968;2023-03-14T15:03:38;2.08;;;0.60;;
16828;SDS011;8531;48.078;11.968;2023-03-14T15:06:07;0.55;;;0.25;;
16828;SDS011;8531;48.078;11.968;2023-03-14T15:08:35;0.50;;;0.30;;
16828;SDS011;8531;48.078;11.968;2023-03-14T15:11:02;0.88;;;0.05;;
16828;SDS011;8531;48.078;11.968;2023-03-14T15:13:28;0.30;;;0.13;;
16828;SDS011;8531;48.078;11.968;2023-03-14T15:15:53;0.38;;;0.25;;
16828;SDS011;8531;48.078;11.968;2023-03-14T15:18:23;0.60;;;0.20;;
16828;SDS011;8531;48.078;11.968;2023-03-14T15:20:50;1.08;;;0.45;;
16828;SDS011;8531;48.078;11.968;2023-03-14T15:23:17;0.30;;;0.28;;
16828;SDS011;8531;48.078;11.968;2023-03-14T15:25:45;0.70;;;0.20;;
16828;SDS011;8531;48.078;11.968;2023-03-14T15:30:41;0.43;;;0.17;;
16828;SDS011;8531;48.078;11.968;2023-03-14T15:33:06;0.40;;;0.10;;
16828;SDS011;8531;48.078;11.968;2023-03-14T15:35:34;0.20;;;0.20;;
16828;SDS011;8531;48.078;11.968;2023-03-14T15:38:02;0.20;;;0.10;;
16828;SDS011;8531;48.078;11.968;2023-03-14T15:40:28;0.52;;;0.20;;
16828;SDS011;8531;48.078;11.968;2023-03-14T15:42:54;0.50;;;0.30;;
16828;SDS011;8531;48.078;11.968;2023-03-14T15:45:20;0.25;;;0.17;;
16828;SDS011;8531;48.078;11.968;2023-03-14T15:47:45;0.65;;;0.38;;
16828;SDS011;8531;48.078;11.968;2023-03-14T15:50:11;1.27;;;0.20;;
16828;SDS011;8531;48.078;11.968;2023-03-14T15:52:37;0.73;;;0.30;;
16828;SDS011;8531;48.078;11.968;2023-03-14T15:55:03;0.40;;;0.20;;
16828;SDS011;8531;48.078;11.968;2023-03-14T15:57:29;0.25;;;0.20;;
16828;SDS011;8531;48.078;11.968;2023-03-14T15:59:54;0.20;;;0.20;;
16828;SDS011;8531;48.078;11.968;2023-03-14T16:02:21;0.38;;;0.20;;
16828;SDS011;8531;48.078;11.968;2023-03-14T16:04:46;0.95;;;0.50;;
16828;SDS011;8531;48.078;11.968;2023-03-14T16:07:12;0.52;;;0.20;;
16828;SDS011;8531;48.078;11.968;2023-03-14T16:09:37;1.48;;;0.77;;
16828;SDS011;8531;48.078;11.968;2023-03-14T16:12:03;0.60;;;0.50;;
16828;SDS011;8531;48.078;11.968;2023-03-14T16:14:32;1.20;;;0.80;;